sensor_id;sensor_type;location;lat;lon;timestamp;P1;durP1;ratioP1;P2;durP2;ratioP2
2656;SDS011;1338;48.176;11.792;2022-10-28T00:01:17;6.60;;;4.67;;
2656;SDS011;1338;48.176;11.792;2022-10-28T00:03:47;7.37;;;5.27;;
2656;SDS011;1338;48.176;11.792;2022-10-28T00:06:17;6.73;;;4.43;;
2656;SDS011;1338;48.176;11.792;2022-10-28T00:08:47;5.10;;;4.70;;
2656;SDS011;1338;48.176;11.792;2022-10-28T00:11:17;4.90;;;4.50;;
2656;SDS011;1338;48.176;11.792;2022-10-28T00:13:48;5.17;;;4.30;;
2656;SDS011;1338;48.176;11.792;2022-10-28T00:16:19;5.40;;;4.23;;
2656;SDS011;1338;48.176;11.792;2022-10-28T00:18:49;5.60;;;4.47;;
2656;SDS011;1338;48.176;11.792;2022-10-28T00:21:19;5.70;;;4.77;;
2656;SDS011;1338;48.176;11.792;2022-10-28T00:23:48;4.40;;;4.00;;
2656;SDS011;1338;48.176;11.792;2022-10-28T00:26:18;4.60;;;4.20;;
2656;SDS011;1338;48.176;11.792;2022-10-28T00:28:49;5.40;;;4.87;;
2656;SDS011;1338;48.176;11.792;2022-10-28T00:31:19;4.73;;;4.20;;
2656;SDS011;1338;48.176;11.792;2022-10-28T00:33:49;4.90;;;4.00;;
2656;SDS011;1338;48.176;11.792;2022-10-28T00:36:18;4.70;;;4.30;;
2656;SDS011;1338;48.176;11.792;2022-10-28T00:38:47;5.13;;;4.63;;
2656;SDS011;1338;48.176;11.792;2022-10-28T00:41:17;5.90;;;4.23;;
2656;SDS011;1338;48.176;11.792;2022-10-28T00:43:49;8.00;;;4.50;;
2656;SDS011;1338;48.176;11.792;2022-10-28T00:46:20;4.00;;;3.70;;
2656;SDS011;1338;48.176;11.792;2022-10-28T00:48:55;4.53;;;4.23;;
2656;SDS011;1338;48.176;11.792;2022-10-28T00:51:26;5.63;;;4.13;;
2656;SDS011;1338;48.176;11.792;2022-10-28T00:53:57;4.10;;;3.70;;
2656;SDS011;1338;48.176;11.792;2022-10-28T00:56:25;4.33;;;3.93;;
2656;SDS011;1338;48.176;11.792;2022-10-28T00:58:58;3.70;;;3.40;;
2656;SDS011;1338;48.176;11.792;2022-10-28T01:01:28;3.90;;;3.60;;
2656;SDS011;1338;48.176;11.792;2022-10-28T01:03:57;3.23;;;3.00;;
2656;SDS011;1338;48.176;11.792;2022-10-28T01:06:25;4.83;;;3.73;;
2656;SDS011;1338;48.176;11.792;2022-10-28T01:08:55;4.27;;;3.87;;
2656;SDS011;1338;48.176;11.792;2022-10-28T01:11:39;3.87;;;3.57;;
2656;SDS011;1338;48.176;11.792;2022-10-28T01:14:25;5.50;;;4.03;;
2656;SDS011;1338;48.176;11.792;2022-10-28T01:17:17;4.43;;;3.60;;
2656;SDS011;1338;48.176;11.792;2022-10-28T01:20:09;4.23;;;3.93;;
2656;SDS011;1338;48.176;11.792;2022-10-28T01:23:08;4.80;;;3.67;;
2656;SDS011;1338;48.176;11.792;2022-10-28T01:25:45;4.90;;;3.40;;
2656;SDS011;1338;48.176;11.792;2022-10-28T01:28:39;4.83;;;4.40;;
2656;SDS011;1338;48.176;11.792;2022-10-28T01:31:31;4.30;;;3.90;;
2656;SDS011;1338;48.176;11.792;2022-10-28T01:34:06;6.73;;;4.17;;
2656;SDS011;1338;48.176;11.792;2022-10-28T01:36:38;5.67;;;4.07;;
2656;SDS011;1338;48.176;11.792;2022-10-28T01:39:16;4.37;;;3.97;;
2656;SDS011;1338;48.176;11.792;2022-10-28T01:41:52;4.40;;;4.00;;
2656;SDS011;1338;48.176;11.792;2022-10-28T01:44:26;4.20;;;3.47;;
2656;SDS011;1338;48.176;11.792;2022-10-28T01:47:02;4.60;;;4.20;;
2656;SDS011;1338;48.176;11.792;2022-10-28T01:49:37;4.20;;;3.90;;
2656;SDS011;1338;48.176;11.792;2022-10-28T01:52:10;5.57;;;4.53;;
2656;SDS011;1338;48.176;11.792;2022-10-28T01:54:40;4.70;;;4.20;;
2656;SDS011;1338;48.176;11.792;2022-10-28T01:57:12;4.43;;;3.70;;
2656;SDS011;1338;48.176;11.792;2022-10-28T01:59:44;5.50;;;4.37;;
2656;SDS011;1338;48.176;11.792;2022-10-28T02:02:16;6.63;;;4.00;;
2656;SDS011;1338;48.176;11.792;2022-10-28T02:04:45;6.13;;;3.90;;
2656;SDS011;1338;48.176;11.792;2022-10-28T02:07:13;3.70;;;3.40;;
2656;SDS011;1338;48.176;11.792;2022-10-28T02:09:47;4.97;;;4.03;;
2656;SDS011;1338;48.176;11.792;2022-10-28T02:12:24;4.83;;;3.80;;
2656;SDS011;1338;48.176;11.792;2022-10-28T02:15:16;4.90;;;4.53;;
2656;SDS011;1338;48.176;11.792;2022-10-28T02:17:55;6.40;;;4.60;;
2656;SDS011;1338;48.176;11.792;2022-10-28T02:20:36;4.97;;;4.57;;
2656;SDS011;1338;48.176;11.792;2022-10-28T02:23:13;4.53;;;4.13;;
2656;SDS011;1338;48.176;11.792;2022-10-28T02:25:50;5.30;;;4.00;;
2656;SDS011;1338;48.176;11.792;2022-10-28T02:28:22;4.23;;;3.93;;
2656;SDS011;1338;48.176;11.792;2022-10-28T02:30:57;5.77;;;4.00;;
2656;SDS011;1338;48.176;11.792;2022-10-28T02:33:30;4.27;;;3.87;;
2656;SDS011;1338;48.176;11.792;2022-10-28T02:36:02;6.83;;;4.37;;
2656;SDS011;1338;48.176;11.792;2022-10-28T02:38:33;4.80;;;4.23;;
2656;SDS011;1338;48.176;11.792;2022-10-28T02:41:07;4.47;;;4.07;;
2656;SDS011;1338;48.176;11.792;2022-10-28T02:43:42;4.50;;;4.00;;
2656;SDS011;1338;48.176;11.792;2022-10-28T02:46:12;5.10;;;3.60;;
2656;SDS011;1338;48.176;11.792;2022-10-28T02:48:44;4.83;;;3.97;;
2656;SDS011;1338;48.176;11.792;2022-10-28T02:51:15;4.17;;;3.83;;
2656;SDS011;1338;48.176;11.792;2022-10-28T02:53:49;4.17;;;3.77;;
2656;SDS011;1338;48.176;11.792;2022-10-28T02:56:22;4.60;;;4.10;;
2656;SDS011;1338;48.176;11.792;2022-10-28T02:58:50;4.57;;;4.13;;
2656;SDS011;1338;48.176;11.792;2022-10-28T03:01:19;10.00;;;4.83;;
2656;SDS011;1338;48.176;11.792;2022-10-28T03:03:48;4.10;;;3.77;;
2656;SDS011;1338;48.176;11.792;2022-10-28T03:06:16;6.43;;;3.93;;
2656;SDS011;1338;48.176;11.792;2022-10-28T03:08:45;4.33;;;3.83;;
2656;SDS011;1338;48.176;11.792;2022-10-28T03:11:13;5.10;;;4.60;;
2656;SDS011;1338;48.176;11.792;2022-10-28T03:13:41;5.60;;;4.43;;
2656;SDS011;1338;48.176;11.792;2022-10-28T03:16:09;13.43;;;5.23;;
2656;SDS011;1338;48.176;11.792;2022-10-28T03:18:37;4.80;;;4.33;;
2656;SDS011;1338;48.176;11.792;2022-10-28T03:21:06;6.17;;;5.50;;
2656;SDS011;1338;48.176;11.792;2022-10-28T03:26:26;4.50;;;4.00;;
2656;SDS011;1338;48.176;11.792;2022-10-28T03:28:55;5.93;;;4.53;;
2656;SDS011;1338;48.176;11.792;2022-10-28T03:31:24;4.30;;;3.90;;
2656;SDS011;1338;48.176;11.792;2022-10-28T03:33:53;5.13;;;4.60;;
2656;SDS011;1338;48.176;11.792;2022-10-28T03:36:24;5.10;;;4.50;;
2656;SDS011;1338;48.176;11.792;2022-10-28T03:38:53;4.50;;;4.10;;
2656;SDS011;1338;48.176;11.792;2022-10-28T03:41:22;8.70;;;4.73;;
2656;SDS011;1338;48.176;11.792;2022-10-28T03:43:53;5.50;;;4.00;;
2656;SDS011;1338;48.176;11.792;2022-10-28T03:46:21;4.67;;;4.17;;
2656;SDS011;1338;48.176;11.792;2022-10-28T03:48:50;5.30;;;4.33;;
2656;SDS011;1338;48.176;11.792;2022-10-28T03:51:19;5.27;;;4.77;;
2656;SDS011;1338;48.176;11.792;2022-10-28T03:53:49;5.53;;;4.23;;
2656;SDS011;1338;48.176;11.792;2022-10-28T03:56:18;6.00;;;4.90;;
2656;SDS011;1338;48.176;11.792;2022-10-28T03:58:46;7.03;;;4.27;;
2656;SDS011;1338;48.176;11.792;2022-10-28T04:01:15;5.33;;;4.13;;
2656;SDS011;1338;48.176;11.792;2022-10-28T04:03:44;5.87;;;3.87;;
2656;SDS011;1338;48.176;11.792;2022-10-28T04:06:12;5.63;;;4.20;;
2656;SDS011;1338;48.176;11.792;2022-10-28T04:08:42;5.33;;;4.83;;
2656;SDS011;1338;48.176;11.792;2022-10-28T04:11:12;6.83;;;5.50;;
2656;SDS011;1338;48.176;11.792;2022-10-28T04:13:41;4.20;;;3.50;;
2656;SDS011;1338;48.176;11.792;2022-10-28T04:16:10;4.40;;;3.80;;
2656;SDS011;1338;48.176;11.792;2022-10-28T04:18:39;5.57;;;5.07;;
2656;SDS011;1338;48.176;11.792;2022-10-28T04:21:07;5.10;;;4.67;;
2656;SDS011;1338;48.176;11.792;2022-10-28T04:23:35;4.60;;;4.20;;
2656;SDS011;1338;48.176;11.792;2022-10-28T04:26:04;5.10;;;4.03;;
2656;SDS011;1338;48.176;11.792;2022-10-28T04:28:36;5.57;;;4.40;;
2656;SDS011;1338;48.176;11.792;2022-10-28T04:31:05;4.40;;;4.00;;
2656;SDS011;1338;48.176;11.792;2022-10-28T04:33:35;5.13;;;3.73;;
2656;SDS011;1338;48.176;11.792;2022-10-28T04:36:04;6.37;;;4.70;;
2656;SDS011;1338;48.176;11.792;2022-10-28T04:38:33;4.20;;;3.90;;
2656;SDS011;1338;48.176;11.792;2022-10-28T04:41:02;4.90;;;4.50;;
2656;SDS011;1338;48.176;11.792;2022-10-28T04:43:31;5.43;;;4.70;;
2656;SDS011;1338;48.176;11.792;2022-10-28T04:46:01;5.23;;;4.70;;
2656;SDS011;1338;48.176;11.792;2022-10-28T04:48:32;5.43;;;4.90;;
2656;SDS011;1338;48.176;11.792;2022-10-28T04:51:00;4.33;;;3.90;;
2656;SDS011;1338;48.176;11.792;2022-10-28T04:53:29;4.13;;;3.73;;
2656;SDS011;1338;48.176;11.792;2022-10-28T04:55:59;5.40;;;3.83;;
2656;SDS011;1338;48.176;11.792;2022-10-28T04:58:28;4.50;;;4.10;;
2656;SDS011;1338;48.176;11.792;2022-10-28T05:00:57;5.70;;;4.07;;
2656;SDS011;1338;48.176;11.792;2022-10-28T05:03:28;5.23;;;4.70;;
2656;SDS011;1338;48.176;11.792;2022-10-28T05:05:56;4.93;;;4.50;;
2656;SDS011;1338;48.176;11.792;2022-10-28T05:08:24;4.33;;;3.80;;
2656;SDS011;1338;48.176;11.792;2022-10-28T05:10:53;6.17;;;4.80;;
2656;SDS011;1338;48.176;11.792;2022-10-28T05:13:21;7.07;;;4.63;;
2656;SDS011;1338;48.176;11.792;2022-10-28T05:15:49;5.27;;;4.23;;
2656;SDS011;1338;48.176;11.792;2022-10-28T05:18:17;6.20;;;5.03;;
2656;SDS011;1338;48.176;11.792;2022-10-28T05:20:47;4.70;;;4.30;;
2656;SDS011;1338;48.176;11.792;2022-10-28T05:23:20;6.73;;;4.83;;
2656;SDS011;1338;48.176;11.792;2022-10-28T05:25:55;7.40;;;4.50;;
2656;SDS011;1338;48.176;11.792;2022-10-28T05:28:23;5.23;;;4.70;;
2656;SDS011;1338;48.176;11.792;2022-10-28T05:30:52;6.47;;;4.30;;
2656;SDS011;1338;48.176;11.792;2022-10-28T05:33:20;4.50;;;4.10;;
2656;SDS011;1338;48.176;11.792;2022-10-28T05:35:50;9.90;;;5.13;;
2656;SDS011;1338;48.176;11.792;2022-10-28T05:38:18;7.97;;;5.40;;
2656;SDS011;1338;48.176;11.792;2022-10-28T05:40:47;8.67;;;5.33;;
2656;SDS011;1338;48.176;11.792;2022-10-28T05:43:15;5.80;;;5.10;;
2656;SDS011;1338;48.176;11.792;2022-10-28T05:45:43;8.57;;;5.10;;
2656;SDS011;1338;48.176;11.792;2022-10-28T05:48:18;5.57;;;4.57;;
2656;SDS011;1338;48.176;11.792;2022-10-28T05:50:46;5.60;;;4.33;;
2656;SDS011;1338;48.176;11.792;2022-10-28T05:53:16;5.10;;;4.60;;
2656;SDS011;1338;48.176;11.792;2022-10-28T05:55:45;9.63;;;4.73;;
2656;SDS011;1338;48.176;11.792;2022-10-28T05:58:13;4.90;;;4.10;;
2656;SDS011;1338;48.176;11.792;2022-10-28T06:00:42;4.10;;;3.70;;
2656;SDS011;1338;48.176;11.792;2022-10-28T06:03:10;8.80;;;3.90;;
2656;SDS011;1338;48.176;11.792;2022-10-28T06:05:39;5.93;;;4.10;;
2656;SDS011;1338;48.176;11.792;2022-10-28T06:08:10;6.60;;;4.20;;
2656;SDS011;1338;48.176;11.792;2022-10-28T06:10:40;4.63;;;4.23;;
2656;SDS011;1338;48.176;11.792;2022-10-28T06:13:18;4.83;;;3.40;;
2656;SDS011;1338;48.176;11.792;2022-10-28T06:15:49;4.30;;;3.90;;
2656;SDS011;1338;48.176;11.792;2022-10-28T06:18:18;4.67;;;4.03;;
2656;SDS011;1338;48.176;11.792;2022-10-28T06:20:51;6.70;;;4.93;;
2656;SDS011;1338;48.176;11.792;2022-10-28T06:23:25;7.03;;;4.03;;
2656;SDS011;1338;48.176;11.792;2022-10-28T06:26:01;5.60;;;4.00;;
2656;SDS011;1338;48.176;11.792;2022-10-28T06:28:33;5.63;;;4.50;;
2656;SDS011;1338;48.176;11.792;2022-10-28T06:31:04;5.73;;;3.70;;
2656;SDS011;1338;48.176;11.792;2022-10-28T06:33:35;5.93;;;3.90;;
2656;SDS011;1338;48.176;11.792;2022-10-28T06:36:07;4.30;;;3.67;;
2656;SDS011;1338;48.176;11.792;2022-10-28T06:38:37;5.50;;;4.33;;
2656;SDS011;1338;48.176;11.792;2022-10-28T06:41:08;6.40;;;4.40;;
2656;SDS011;1338;48.176;11.792;2022-10-28T06:43:38;6.50;;;4.57;;
2656;SDS011;1338;48.176;11.792;2022-10-28T06:46:10;8.97;;;5.53;;
2656;SDS011;1338;48.176;11.792;2022-10-28T06:48:41;5.33;;;4.83;;
2656;SDS011;1338;48.176;11.792;2022-10-28T06:51:11;7.53;;;4.53;;
2656;SDS011;1338;48.176;11.792;2022-10-28T06:53:42;10.53;;;4.70;;
2656;SDS011;1338;48.176;11.792;2022-10-28T06:56:22;4.70;;;4.30;;
2656;SDS011;1338;48.176;11.792;2022-10-28T06:58:55;6.70;;;4.37;;
2656;SDS011;1338;48.176;11.792;2022-10-28T07:01:25;4.87;;;4.10;;
2656;SDS011;1338;48.176;11.792;2022-10-28T07:03:55;5.60;;;4.07;;
2656;SDS011;1338;48.176;11.792;2022-10-28T07:06:26;4.40;;;4.00;;
2656;SDS011;1338;48.176;11.792;2022-10-28T07:08:58;7.40;;;4.20;;
2656;SDS011;1338;48.176;11.792;2022-10-28T07:11:30;7.53;;;4.83;;
2656;SDS011;1338;48.176;11.792;2022-10-28T07:14:00;5.90;;;3.80;;
2656;SDS011;1338;48.176;11.792;2022-10-28T07:16:29;3.90;;;3.53;;
2656;SDS011;1338;48.176;11.792;2022-10-28T07:18:59;5.10;;;4.27;;
2656;SDS011;1338;48.176;11.792;2022-10-28T07:21:31;4.23;;;3.83;;
2656;SDS011;1338;48.176;11.792;2022-10-28T07:24:01;4.27;;;3.87;;
2656;SDS011;1338;48.176;11.792;2022-10-28T07:26:36;4.17;;;3.77;;
2656;SDS011;1338;48.176;11.792;2022-10-28T07:29:10;4.03;;;3.63;;
2656;SDS011;1338;48.176;11.792;2022-10-28T07:31:41;6.60;;;3.67;;
2656;SDS011;1338;48.176;11.792;2022-10-28T07:34:14;4.50;;;4.10;;
2656;SDS011;1338;48.176;11.792;2022-10-28T07:36:51;5.83;;;4.10;;
2656;SDS011;1338;48.176;11.792;2022-10-28T07:39:21;3.67;;;3.33;;
2656;SDS011;1338;48.176;11.792;2022-10-28T07:41:53;6.73;;;4.07;;
2656;SDS011;1338;48.176;11.792;2022-10-28T07:44:23;5.17;;;3.77;;
2656;SDS011;1338;48.176;11.792;2022-10-28T07:46:52;5.10;;;4.37;;
2656;SDS011;1338;48.176;11.792;2022-10-28T07:49:25;5.67;;;4.00;;
2656;SDS011;1338;48.176;11.792;2022-10-28T07:51:53;4.90;;;4.00;;
2656;SDS011;1338;48.176;11.792;2022-10-28T07:54:22;6.13;;;3.70;;
2656;SDS011;1338;48.176;11.792;2022-10-28T07:56:54;10.83;;;3.80;;
2656;SDS011;1338;48.176;11.792;2022-10-28T07:59:22;4.53;;;3.70;;
2656;SDS011;1338;48.176;11.792;2022-10-28T08:01:54;4.10;;;3.57;;
2656;SDS011;1338;48.176;11.792;2022-10-28T08:04:23;3.73;;;3.43;;
2656;SDS011;1338;48.176;11.792;2022-10-28T08:06:57;3.70;;;3.40;;
2656;SDS011;1338;48.176;11.792;2022-10-28T08:09:27;3.83;;;3.53;;
2656;SDS011;1338;48.176;11.792;2022-10-28T08:12:02;4.73;;;3.37;;
2656;SDS011;1338;48.176;11.792;2022-10-28T08:14:32;3.70;;;3.30;;
2656;SDS011;1338;48.176;11.792;2022-10-28T08:17:02;4.10;;;3.70;;
2656;SDS011;1338;48.176;11.792;2022-10-28T08:19:35;3.60;;;3.30;;
2656;SDS011;1338;48.176;11.792;2022-10-28T08:22:06;3.70;;;3.40;;
2656;SDS011;1338;48.176;11.792;2022-10-28T08:24:35;4.10;;;3.80;;
2656;SDS011;1338;48.176;11.792;2022-10-28T08:27:07;5.30;;;3.27;;
2656;SDS011;1338;48.176;11.792;2022-10-28T08:29:36;3.27;;;2.97;;
2656;SDS011;1338;48.176;11.792;2022-10-28T08:32:13;4.30;;;3.40;;
2656;SDS011;1338;48.176;11.792;2022-10-28T08:34:49;4.20;;;3.40;;
2656;SDS011;1338;48.176;11.792;2022-10-28T08:37:22;3.10;;;2.90;;
2656;SDS011;1338;48.176;11.792;2022-10-28T08:39:53;5.10;;;3.40;;
2656;SDS011;1338;48.176;11.792;2022-10-28T08:42:34;4.17;;;2.90;;
2656;SDS011;1338;48.176;11.792;2022-10-28T08:45:15;4.77;;;3.57;;
2656;SDS011;1338;48.176;11.792;2022-10-28T08:50:46;3.83;;;3.20;;
2656;SDS011;1338;48.176;11.792;2022-10-28T08:53:20;4.13;;;3.27;;
2656;SDS011;1338;48.176;11.792;2022-10-28T08:55:55;5.20;;;3.10;;
2656;SDS011;1338;48.176;11.792;2022-10-28T09:01:40;3.13;;;2.80;;
2656;SDS011;1338;48.176;11.792;2022-10-28T09:04:26;3.07;;;2.77;;
2656;SDS011;1338;48.176;11.792;2022-10-28T09:07:14;3.70;;;3.20;;
2656;SDS011;1338;48.176;11.792;2022-10-28T09:09:48;5.53;;;3.20;;
2656;SDS011;1338;48.176;11.792;2022-10-28T09:12:25;3.07;;;2.87;;
2656;SDS011;1338;48.176;11.792;2022-10-28T09:15:22;5.90;;;3.50;;
2656;SDS011;1338;48.176;11.792;2022-10-28T09:18:03;5.00;;;3.20;;
2656;SDS011;1338;48.176;11.792;2022-10-28T09:20:56;3.40;;;2.80;;
2656;SDS011;1338;48.176;11.792;2022-10-28T09:23:32;3.83;;;3.10;;
2656;SDS011;1338;48.176;11.792;2022-10-28T09:26:15;3.80;;;2.90;;
2656;SDS011;1338;48.176;11.792;2022-10-28T09:28:53;3.20;;;2.90;;
2656;SDS011;1338;48.176;11.792;2022-10-28T09:31:35;3.00;;;2.80;;
2656;SDS011;1338;48.176;11.792;2022-10-28T09:34:09;4.40;;;2.93;;
2656;SDS011;1338;48.176;11.792;2022-10-28T09:36:48;5.10;;;3.37;;
2656;SDS011;1338;48.176;11.792;2022-10-28T09:39:25;4.30;;;3.10;;
2656;SDS011;1338;48.176;11.792;2022-10-28T09:42:07;4.13;;;2.60;;
2656;SDS011;1338;48.176;11.792;2022-10-28T09:44:47;4.57;;;3.37;;
2656;SDS011;1338;48.176;11.792;2022-10-28T09:47:23;3.43;;;3.00;;
2656;SDS011;1338;48.176;11.792;2022-10-28T09:49:58;3.10;;;2.90;;
2656;SDS011;1338;48.176;11.792;2022-10-28T09:52:38;8.33;;;3.60;;
2656;SDS011;1338;48.176;11.792;2022-10-28T09:55:24;6.30;;;4.40;;
2656;SDS011;1338;48.176;11.792;2022-10-28T09:57:55;5.20;;;3.30;;
2656;SDS011;1338;48.176;11.792;2022-10-28T10:00:24;4.47;;;3.00;;
2656;SDS011;1338;48.176;11.792;2022-10-28T10:02:56;3.47;;;2.83;;
2656;SDS011;1338;48.176;11.792;2022-10-28T10:05:26;4.13;;;3.30;;
2656;SDS011;1338;48.176;11.792;2022-10-28T10:07:57;6.00;;;3.17;;
2656;SDS011;1338;48.176;11.792;2022-10-28T10:10:30;3.77;;;3.30;;
2656;SDS011;1338;48.176;11.792;2022-10-28T10:13:03;4.20;;;3.10;;
2656;SDS011;1338;48.176;11.792;2022-10-28T10:15:35;3.20;;;2.90;;
2656;SDS011;1338;48.176;11.792;2022-10-28T10:18:12;5.13;;;3.60;;
2656;SDS011;1338;48.176;11.792;2022-10-28T10:20:46;3.43;;;3.00;;
2656;SDS011;1338;48.176;11.792;2022-10-28T10:23:26;3.20;;;2.93;;
2656;SDS011;1338;48.176;11.792;2022-10-28T10:25:58;4.77;;;2.87;;
2656;SDS011;1338;48.176;11.792;2022-10-28T10:28:38;3.20;;;2.90;;
2656;SDS011;1338;48.176;11.792;2022-10-28T10:31:15;3.17;;;2.70;;
2656;SDS011;1338;48.176;11.792;2022-10-28T10:33:49;2.80;;;2.60;;
2656;SDS011;1338;48.176;11.792;2022-10-28T10:36:22;4.17;;;3.07;;
2656;SDS011;1338;48.176;11.792;2022-10-28T10:38:55;4.70;;;2.73;;
2656;SDS011;1338;48.176;11.792;2022-10-28T10:41:32;4.60;;;2.90;;
2656;SDS011;1338;48.176;11.792;2022-10-28T10:44:06;4.93;;;3.33;;
2656;SDS011;1338;48.176;11.792;2022-10-28T10:49:56;3.70;;;3.00;;
2656;SDS011;1338;48.176;11.792;2022-10-28T10:52:48;3.60;;;2.80;;
2656;SDS011;1338;48.176;11.792;2022-10-28T10:55:26;3.93;;;3.53;;
2656;SDS011;1338;48.176;11.792;2022-10-28T10:58:03;3.80;;;2.97;;
2656;SDS011;1338;48.176;11.792;2022-10-28T11:00:34;3.53;;;3.10;;
2656;SDS011;1338;48.176;11.792;2022-10-28T11:03:18;3.03;;;2.53;;
2656;SDS011;1338;48.176;11.792;2022-10-28T11:05:53;4.03;;;2.67;;
2656;SDS011;1338;48.176;11.792;2022-10-28T11:08:53;2.90;;;2.70;;
2656;SDS011;1338;48.176;11.792;2022-10-28T11:11:32;4.37;;;2.93;;
2656;SDS011;1338;48.176;11.792;2022-10-28T11:14:03;3.50;;;3.20;;
2656;SDS011;1338;48.176;11.792;2022-10-28T11:16:45;2.93;;;2.70;;
2656;SDS011;1338;48.176;11.792;2022-10-28T11:19:19;3.90;;;3.27;;
2656;SDS011;1338;48.176;11.792;2022-10-28T11:21:52;4.77;;;3.07;;
2656;SDS011;1338;48.176;11.792;2022-10-28T11:27:32;3.33;;;2.90;;
2656;SDS011;1338;48.176;11.792;2022-10-28T11:30:08;3.50;;;2.90;;
2656;SDS011;1338;48.176;11.792;2022-10-28T11:32:44;7.37;;;3.10;;
2656;SDS011;1338;48.176;11.792;2022-10-28T11:35:45;4.23;;;3.03;;
2656;SDS011;1338;48.176;11.792;2022-10-28T11:38:25;4.67;;;3.07;;
2656;SDS011;1338;48.176;11.792;2022-10-28T11:41:19;3.73;;;3.10;;
2656;SDS011;1338;48.176;11.792;2022-10-28T11:43:54;6.97;;;4.90;;
2656;SDS011;1338;48.176;11.792;2022-10-28T11:46:35;13.40;;;7.03;;
2656;SDS011;1338;48.176;11.792;2022-10-28T11:49:24;4.50;;;2.90;;
2656;SDS011;1338;48.176;11.792;2022-10-28T11:52:21;5.70;;;3.30;;
2656;SDS011;1338;48.176;11.792;2022-10-28T11:54:59;3.07;;;2.60;;
2656;SDS011;1338;48.176;11.792;2022-10-28T11:57:42;3.67;;;2.90;;
2656;SDS011;1338;48.176;11.792;2022-10-28T12:00:24;4.30;;;3.07;;
2656;SDS011;1338;48.176;11.792;2022-10-28T12:03:01;3.80;;;2.63;;
2656;SDS011;1338;48.176;11.792;2022-10-28T12:05:36;6.40;;;3.50;;
2656;SDS011;1338;48.176;11.792;2022-10-28T12:08:15;3.47;;;2.63;;
2656;SDS011;1338;48.176;11.792;2022-10-28T12:10:59;6.63;;;3.10;;
2656;SDS011;1338;48.176;11.792;2022-10-28T12:13:42;3.30;;;3.00;;
2656;SDS011;1338;48.176;11.792;2022-10-28T12:16:19;3.27;;;2.77;;
2656;SDS011;1338;48.176;11.792;2022-10-28T12:18:53;3.90;;;2.53;;
2656;SDS011;1338;48.176;11.792;2022-10-28T12:21:29;2.93;;;2.60;;
2656;SDS011;1338;48.176;11.792;2022-10-28T12:24:00;2.87;;;2.57;;
2656;SDS011;1338;48.176;11.792;2022-10-28T12:26:34;4.07;;;2.80;;
2656;SDS011;1338;48.176;11.792;2022-10-28T12:29:08;4.63;;;3.03;;
2656;SDS011;1338;48.176;11.792;2022-10-28T12:31:44;4.63;;;2.90;;
2656;SDS011;1338;48.176;11.792;2022-10-28T12:34:15;3.17;;;2.70;;
2656;SDS011;1338;48.176;11.792;2022-10-28T12:36:49;5.30;;;2.73;;
2656;SDS011;1338;48.176;11.792;2022-10-28T12:39:23;4.30;;;2.60;;
2656;SDS011;1338;48.176;11.792;2022-10-28T12:41:57;3.90;;;2.73;;
2656;SDS011;1338;48.176;11.792;2022-10-28T12:44:31;4.17;;;2.63;;
2656;SDS011;1338;48.176;11.792;2022-10-28T12:47:02;2.87;;;2.60;;
2656;SDS011;1338;48.176;11.792;2022-10-28T12:49:43;5.53;;;3.20;;
2656;SDS011;1338;48.176;11.792;2022-10-28T12:52:26;4.00;;;2.80;;
2656;SDS011;1338;48.176;11.792;2022-10-28T12:55:00;4.20;;;2.87;;
2656;SDS011;1338;48.176;11.792;2022-10-28T12:57:35;3.53;;;3.00;;
2656;SDS011;1338;48.176;11.792;2022-10-28T13:00:12;2.50;;;2.30;;
2656;SDS011;1338;48.176;11.792;2022-10-28T13:02:47;4.00;;;2.80;;
2656;SDS011;1338;48.176;11.792;2022-10-28T13:05:20;4.30;;;2.40;;
2656;SDS011;1338;48.176;11.792;2022-10-28T13:07:57;3.10;;;2.60;;
2656;SDS011;1338;48.176;11.792;2022-10-28T13:10:44;3.03;;;2.73;;
2656;SDS011;1338;48.176;11.792;2022-10-28T13:13:32;4.77;;;2.60;;
2656;SDS011;1338;48.176;11.792;2022-10-28T13:16:09;8.50;;;2.80;;
2656;SDS011;1338;48.176;11.792;2022-10-28T13:22:09;2.60;;;2.40;;
2656;SDS011;1338;48.176;11.792;2022-10-28T13:25:00;2.77;;;2.57;;
2656;SDS011;1338;48.176;11.792;2022-10-28T13:27:40;2.93;;;2.40;;
2656;SDS011;1338;48.176;11.792;2022-10-28T13:30:14;3.53;;;3.23;;
2656;SDS011;1338;48.176;11.792;2022-10-28T13:32:58;2.97;;;2.57;;
2656;SDS011;1338;48.176;11.792;2022-10-28T13:35:30;3.10;;;2.80;;
2656;SDS011;1338;48.176;11.792;2022-10-28T13:37:59;3.00;;;2.80;;
2656;SDS011;1338;48.176;11.792;2022-10-28T13:43:56;2.60;;;2.40;;
2656;SDS011;1338;48.176;11.792;2022-10-28T13:49:28;3.73;;;2.67;;
2656;SDS011;1338;48.176;11.792;2022-10-28T13:52:00;3.37;;;2.70;;
2656;SDS011;1338;48.176;11.792;2022-10-28T13:54:30;2.77;;;2.40;;
2656;SDS011;1338;48.176;11.792;2022-10-28T13:57:01;3.53;;;2.80;;
2656;SDS011;1338;48.176;11.792;2022-10-28T13:59:45;4.53;;;2.97;;
2656;SDS011;1338;48.176;11.792;2022-10-28T14:02:22;3.67;;;2.93;;
2656;SDS011;1338;48.176;11.792;2022-10-28T14:05:06;3.10;;;2.80;;
2656;SDS011;1338;48.176;11.792;2022-10-28T14:07:37;2.83;;;2.63;;
2656;SDS011;1338;48.176;11.792;2022-10-28T14:10:19;2.97;;;2.70;;
2656;SDS011;1338;48.176;11.792;2022-10-28T14:12:50;6.13;;;2.47;;
2656;SDS011;1338;48.176;11.792;2022-10-28T14:15:22;2.80;;;2.33;;
2656;SDS011;1338;48.176;11.792;2022-10-28T14:17:55;3.60;;;2.80;;
2656;SDS011;1338;48.176;11.792;2022-10-28T14:20:52;4.87;;;2.83;;
2656;SDS011;1338;48.176;11.792;2022-10-28T14:33:00;5.20;;;2.70;;
2656;SDS011;1338;48.176;11.792;2022-10-28T14:35:38;3.10;;;2.80;;
2656;SDS011;1338;48.176;11.792;2022-10-28T14:38:13;6.10;;;3.03;;
2656;SDS011;1338;48.176;11.792;2022-10-28T14:41:15;3.00;;;2.80;;
2656;SDS011;1338;48.176;11.792;2022-10-28T14:43:56;3.40;;;2.67;;
2656;SDS011;1338;48.176;11.792;2022-10-28T14:46:35;2.97;;;2.23;;
2656;SDS011;1338;48.176;11.792;2022-10-28T14:49:17;4.33;;;2.23;;
2656;SDS011;1338;48.176;11.792;2022-10-28T14:51:50;3.77;;;2.70;;
2656;SDS011;1338;48.176;11.792;2022-10-28T14:54:22;5.43;;;3.00;;
2656;SDS011;1338;48.176;11.792;2022-10-28T14:56:56;3.70;;;2.57;;
2656;SDS011;1338;48.176;11.792;2022-10-28T14:59:24;3.10;;;2.80;;
2656;SDS011;1338;48.176;11.792;2022-10-28T15:01:58;3.13;;;2.70;;
2656;SDS011;1338;48.176;11.792;2022-10-28T15:04:30;5.23;;;3.10;;
2656;SDS011;1338;48.176;11.792;2022-10-28T15:06:58;3.10;;;2.83;;
2656;SDS011;1338;48.176;11.792;2022-10-28T15:09:27;3.83;;;2.97;;
2656;SDS011;1338;48.176;11.792;2022-10-28T15:11:59;3.20;;;2.90;;
2656;SDS011;1338;48.176;11.792;2022-10-28T15:14:30;4.43;;;2.60;;
2656;SDS011;1338;48.176;11.792;2022-10-28T15:17:09;5.13;;;2.90;;
2656;SDS011;1338;48.176;11.792;2022-10-28T15:19:41;4.40;;;2.70;;
2656;SDS011;1338;48.176;11.792;2022-10-28T15:22:12;5.30;;;2.90;;
2656;SDS011;1338;48.176;11.792;2022-10-28T15:24:50;4.80;;;3.23;;
2656;SDS011;1338;48.176;11.792;2022-10-28T15:27:24;4.80;;;2.90;;
2656;SDS011;1338;48.176;11.792;2022-10-28T15:29:54;3.67;;;3.00;;
2656;SDS011;1338;48.176;11.792;2022-10-28T15:32:24;3.83;;;2.83;;
2656;SDS011;1338;48.176;11.792;2022-10-28T15:34:56;3.83;;;3.23;;
2656;SDS011;1338;48.176;11.792;2022-10-28T15:37:25;4.60;;;3.13;;
2656;SDS011;1338;48.176;11.792;2022-10-28T15:40:09;4.43;;;2.80;;
2656;SDS011;1338;48.176;11.792;2022-10-28T15:42:48;3.27;;;2.97;;
2656;SDS011;1338;48.176;11.792;2022-10-28T15:45:19;3.70;;;2.67;;
2656;SDS011;1338;48.176;11.792;2022-10-28T15:47:51;4.10;;;3.13;;
2656;SDS011;1338;48.176;11.792;2022-10-28T15:50:26;3.93;;;3.00;;
2656;SDS011;1338;48.176;11.792;2022-10-28T15:56:05;4.03;;;3.00;;
2656;SDS011;1338;48.176;11.792;2022-10-28T15:58:45;3.50;;;3.20;;
2656;SDS011;1338;48.176;11.792;2022-10-28T16:01:25;4.60;;;3.27;;
2656;SDS011;1338;48.176;11.792;2022-10-28T16:03:56;5.90;;;3.10;;
2656;SDS011;1338;48.176;11.792;2022-10-28T16:06:26;7.30;;;3.27;;
2656;SDS011;1338;48.176;11.792;2022-10-28T16:09:04;7.30;;;3.27;;
2656;SDS011;1338;48.176;11.792;2022-10-28T16:11:43;3.53;;;3.00;;
2656;SDS011;1338;48.176;11.792;2022-10-28T16:17:05;3.87;;;2.77;;
2656;SDS011;1338;48.176;11.792;2022-10-28T16:19:39;4.23;;;3.20;;
2656;SDS011;1338;48.176;11.792;2022-10-28T16:22:12;3.60;;;2.80;;